Time;durP1;ratioP1;P1;durP2;ratioP2;P2;SDS_P1;SDS_P2;PMS_P1;PMS_P2;Temp;Humidity;BMP_temperature;BMP_pressure;BME280_temperature;BME280_humidity;BME280_pressure;Samples;Min_cycle;Max_cycle;Signal;HPM_P1;HPM_P2
2022/01/07 00:00:48;;;;;;;0.10;0.10;;;-0.20;99.90;;;;;;4942728;28;20231;-73
2022/01/07 00:03:16;;;;;;;0.20;0.20;;;-0.20;99.90;;;;;;4924690;29;20258;-72
2022/01/07 00:05:44;;;;;;;0.20;0.20;;;-0.20;99.90;;;;;;4925476;29;20693;-72
2022/01/07 00:08:11;;;;;;;0.20;0.20;;;-0.20;99.90;;;;;;4919046;29;20200;-72
2022/01/07 00:10:38;;;;;;;0.20;0.20;;;-0.10;99.90;;;;;;4926291;29;20235;-72
2022/01/07 00:13:05;;;;;;;0.20;0.20;;;-0.10;99.90;;;;;;4920009;29;20223;-72
2022/01/07 00:15:32;;;;;;;0.17;0.17;;;-0.10;99.90;;;;;;4918296;29;20244;-72
2022/01/07 00:17:59;;;;;;;0.20;0.20;;;-0.10;99.90;;;;;;4935351;28;20216;-73
2022/01/07 00:20:27;;;;;;;0.20;0.20;;;-0.10;99.90;;;;;;4937085;28;20228;-71
2022/01/07 00:22:55;;;;;;;0.20;0.20;;;-0.10;99.90;;;;;;4922927;29;20230;-71
2022/01/07 00:25:23;;;;;;;0.20;0.20;;;0.00;99.90;;;;;;4940841;28;20212;-71
2022/01/07 00:27:51;;;;;;;0.20;0.20;;;0.00;99.90;;;;;;4926716;29;20258;-72
2022/01/07 00:30:19;;;;;;;0.17;0.17;;;0.00;99.90;;;;;;4918161;29;20271;-72
2022/01/07 00:32:47;;;;;;;0.20;0.20;;;0.00;99.90;;;;;;4922436;29;20231;-72
2022/01/07 00:35:15;;;;;;;0.10;0.10;;;0.10;99.90;;;;;;4922754;29;20227;-72
2022/01/07 00:37:43;;;;;;;0.20;0.20;;;0.10;99.90;;;;;;4917990;29;20238;-70
2022/01/07 00:40:15;;;;;;;0.15;0.15;;;0.20;99.90;;;;;;4926046;29;20230;-71
2022/01/07 00:42:42;;;;;;;0.17;0.17;;;0.20;99.90;;;;;;4918294;29;20228;-72
2022/01/07 00:45:10;;;;;;;0.20;0.20;;;0.20;99.90;;;;;;4924479;29;20282;-73
2022/01/07 00:47:37;;;;;;;0.10;0.10;;;0.20;99.90;;;;;;4931544;28;20203;-72
2022/01/07 00:50:07;;;;;;;0.20;0.20;;;0.20;99.90;;;;;;4913759;29;20211;-72
2022/01/07 00:52:34;;;;;;;0.20;0.20;;;0.30;99.90;;;;;;4919404;29;20322;-72
2022/01/07 00:55:01;;;;;;;0.10;0.10;;;0.30;99.90;;;;;;4924223;29;20290;-72
2022/01/07 00:57:29;;;;;;;0.20;0.20;;;0.20;99.90;;;;;;4924144;29;20200;-73
2022/01/07 00:59:57;;;;;;;0.20;0.20;;;0.20;99.90;;;;;;4920367;29;20220;-72
2022/01/07 01:02:23;;;;;;;0.10;0.10;;;0.20;99.90;;;;;;4926809;29;20295;-73
2022/01/07 01:04:50;;;;;;;0.10;0.10;;;0.20;99.90;;;;;;4918456;29;20267;-72
2022/01/07 01:07:17;;;;;;;0.10;0.10;;;0.20;99.90;;;;;;4925274;29;20228;-73
2022/01/07 01:09:44;;;;;;;0.20;0.20;;;0.20;99.90;;;;;;4924593;29;20765;-72
2022/01/07 01:12:13;;;;;;;0.20;0.20;;;0.10;99.90;;;;;;4925425;29;20227;-73
2022/01/07 01:14:41;;;;;;;0.20;0.20;;;0.10;99.90;;;;;;4916180;29;20255;-73
2022/01/07 01:17:08;;;;;;;0.20;0.20;;;0.10;99.90;;;;;;4917989;29;20643;-73
2022/01/07 01:19:36;;;;;;;0.20;0.20;;;0.10;99.90;;;;;;4941070;28;20212;-72
2022/01/07 01:22:04;;;;;;;0.20;0.20;;;0.10;99.90;;;;;;4940765;28;20244;-72
2022/01/07 01:24:31;;;;;;;0.10;0.10;;;0.00;99.90;;;;;;4919419;29;20210;-72
2022/01/07 01:26:58;;;;;;;0.20;0.20;;;0.00;99.90;;;;;;4940768;28;20203;-71
2022/01/07 01:29:26;;;;;;;0.20;0.20;;;0.00;99.90;;;;;;4917154;29;20218;-73
2022/01/07 01:31:55;;;;;;;0.20;0.20;;;-0.10;99.90;;;;;;4924900;29;20219;-72
2022/01/07 01:34:22;;;;;;;0.13;0.13;;;-0.10;99.90;;;;;;4918846;29;20583;-72
2022/01/07 01:36:49;;;;;;;0.20;0.20;;;-0.10;99.90;;;;;;4921347;29;20212;-72
2022/01/07 01:39:16;;;;;;;0.20;0.20;;;-0.20;99.90;;;;;;4918172;29;20207;-73
2022/01/07 01:41:43;;;;;;;0.10;0.10;;;-0.20;99.90;;;;;;4925183;29;20235;-73
2022/01/07 01:44:11;;;;;;;0.20;0.20;;;-0.20;99.90;;;;;;4922035;29;20271;-73
2022/01/07 01:46:38;;;;;;;0.20;0.20;;;-0.20;99.90;;;;;;4941013;28;20274;-73
2022/01/07 01:49:07;;;;;;;0.20;0.20;;;-0.20;99.90;;;;;;4940175;28;20204;-73
2022/01/07 01:51:35;;;;;;;0.17;0.17;;;-0.20;99.90;;;;;;4916467;29;20773;-72
2022/01/07 01:54:03;;;;;;;0.20;0.20;;;-0.20;99.90;;;;;;4923490;29;20236;-72
2022/01/07 01:56:31;;;;;;;0.10;0.10;;;-0.20;99.90;;;;;;4939922;28;20215;-72
2022/01/07 01:58:58;;;;;;;0.20;0.20;;;-0.30;99.90;;;;;;4919610;29;20240;-72
2022/01/07 02:01:25;;;;;;;0.13;0.13;;;-0.20;99.90;;;;;;4917953;29;20279;-72
2022/01/07 02:03:52;;;;;;;0.20;0.20;;;-0.20;99.90;;;;;;4928705;28;20219;-71
2022/01/07 02:06:21;;;;;;;0.20;0.20;;;-0.20;99.90;;;;;;4917749;29;20251;-73
2022/01/07 02:08:49;;;;;;;0.20;0.20;;;-0.30;99.90;;;;;;4931128;28;20210;-72
2022/01/07 02:11:16;;;;;;;0.20;0.20;;;-0.20;99.90;;;;;;4924058;29;20231;-73
2022/01/07 02:13:46;;;;;;;0.20;0.20;;;-0.20;99.90;;;;;;4924684;29;20207;-73
2022/01/07 02:16:13;;;;;;;0.20;0.20;;;-0.20;99.90;;;;;;4927274;29;20302;-72
2022/01/07 02:18:42;;;;;;;0.20;0.20;;;-0.30;99.90;;;;;;4920343;29;20274;-73
2022/01/07 02:21:10;;;;;;;0.20;0.20;;;-0.20;99.90;;;;;;4928008;29;20250;-72
2022/01/07 02:23:37;;;;;;;0.20;0.20;;;-0.20;99.90;;;;;;4923038;29;20310;-72
2022/01/07 02:26:04;;;;;;;0.20;0.20;;;-0.20;99.90;;;;;;4926545;29;20216;-72
2022/01/07 02:28:34;;;;;;;0.20;0.20;;;-0.20;99.90;;;;;;4927612;29;20211;-73
2022/01/07 02:31:01;;;;;;;0.20;0.20;;;-0.20;99.90;;;;;;4925469;29;20210;-72
2022/01/07 02:33:29;;;;;;;0.20;0.20;;;-0.20;99.90;;;;;;4927796;29;20207;-72
2022/01/07 02:35:56;;;;;;;0.20;0.20;;;-0.20;99.90;;;;;;4925518;29;20302;-72
2022/01/07 02:38:24;;;;;;;0.20;0.20;;;-0.20;99.90;;;;;;4918943;29;20254;-72
2022/01/07 02:40:52;;;;;;;0.20;0.20;;;-0.20;99.90;;;;;;4924798;29;20302;-72
2022/01/07 02:43:19;;;;;;;0.20;0.20;;;-0.20;99.90;;;;;;4944847;28;20215;-73
2022/01/07 02:45:46;;;;;;;0.10;0.10;;;-0.20;99.90;;;;;;4920676;29;20212;-72
2022/01/07 02:48:12;;;;;;;0.10;0.10;;;-0.20;99.90;;;;;;4944173;28;20272;-73
2022/01/07 02:50:40;;;;;;;0.20;0.20;;;-0.20;99.90;;;;;;4933546;28;20207;-72
2022/01/07 02:53:10;;;;;;;0.20;0.20;;;-0.20;99.90;;;;;;4942843;28;20223;-73
2022/01/07 02:55:40;;;;;;;0.20;0.20;;;-0.20;99.90;;;;;;4920300;29;20203;-73
2022/01/07 02:58:08;;;;;;;0.20;0.20;;;-0.20;99.90;;;;;;4920517;29;20290;-72
2022/01/07 03:00:35;;;;;;;0.20;0.20;;;-0.20;99.90;;;;;;4918086;29;20220;-73
2022/01/07 03:03:04;;;;;;;0.20;0.20;;;-0.20;99.90;;;;;;4931354;28;20313;-72
2022/01/07 03:05:31;;;;;;;0.20;0.20;;;-0.20;99.90;;;;;;4927242;29;20207;-72
2022/01/07 03:07:58;;;;;;;0.20;0.20;;;-0.10;99.90;;;;;;4920340;29;20639;-73
2022/01/07 03:10:29;;;;;;;0.20;0.20;;;-0.10;99.90;;;;;;4927838;29;20259;-73
2022/01/07 03:13:00;;;;;;;0.20;0.20;;;-0.10;99.90;;;;;;4943199;28;20326;-73
2022/01/07 03:15:28;;;;;;;0.20;0.20;;;0.00;99.90;;;;;;4925585;29;20215;-72
2022/01/07 03:17:55;;;;;;;0.20;0.20;;;0.00;99.90;;;;;;4921872;29;20290;-73
2022/01/07 03:20:23;;;;;;;0.20;0.20;;;0.10;99.90;;;;;;4920670;29;20231;-73
2022/01/07 03:22:51;;;;;;;0.20;0.20;;;0.10;99.90;;;;;;4929230;29;20262;-72
2022/01/07 03:25:19;;;;;;;0.20;0.20;;;0.10;99.90;;;;;;4923630;29;20276;-73
2022/01/07 03:27:47;;;;;;;0.10;0.10;;;0.20;99.90;;;;;;4929362;29;20204;-72
2022/01/07 03:30:18;;;;;;;0.10;0.10;;;0.20;99.90;;;;;;4928567;29;20231;-72
2022/01/07 03:32:46;;;;;;;0.20;0.20;;;0.30;99.90;;;;;;4922638;29;20256;-72
2022/01/07 03:35:13;;;;;;;0.20;0.20;;;0.30;99.90;;;;;;4920291;29;20224;-71
2022/01/07 03:37:42;;;;;;;0.20;0.20;;;0.40;99.90;;;;;;4931881;28;20256;-72
2022/01/07 03:40:11;;;;;;;0.20;0.20;;;0.40;99.90;;;;;;4927167;29;20320;-73
2022/01/07 03:42:38;;;;;;;0.10;0.10;;;0.40;99.90;;;;;;4942220;28;20255;-72
2022/01/07 03:45:06;;;;;;;0.10;0.10;;;0.50;99.90;;;;;;4924759;29;20204;-72
2022/01/07 03:47:34;;;;;;;0.20;0.20;;;0.50;99.90;;;;;;4921982;29;20242;-72
2022/01/07 03:50:01;;;;;;;0.20;0.20;;;0.50;99.90;;;;;;4920657;29;20202;-73
2022/01/07 03:52:30;;;;;;;0.10;0.10;;;0.60;99.90;;;;;;4921227;29;20228;-73
2022/01/07 03:54:57;;;;;;;0.20;0.20;;;0.60;99.90;;;;;;4921138;29;20278;-72
2022/01/07 03:57:23;;;;;;;0.10;0.10;;;0.60;99.90;;;;;;4926739;29;20325;-72
2022/01/07 03:59:50;;;;;;;0.13;0.13;;;0.60;99.90;;;;;;4926905;29;20208;-71
2022/01/07 04:02:18;;;;;;;0.10;0.10;;;0.70;99.90;;;;;;4926411;28;20239;-72
2022/01/07 04:04:46;;;;;;;0.10;0.10;;;0.70;99.90;;;;;;4935514;29;20207;-72
2022/01/07 04:07:13;;;;;;;0.10;0.10;;;0.70;99.90;;;;;;4927112;29;20704;-72
2022/01/07 04:09:41;;;;;;;0.20;0.20;;;0.70;99.90;;;;;;4927553;29;20215;-72
2022/01/07 04:12:09;;;;;;;0.20;0.20;;;0.70;99.90;;;;;;4922587;29;20252;-72
2022/01/07 04:14:36;;;;;;;0.10;0.10;;;0.80;99.90;;;;;;4926543;29;20231;-73
2022/01/07 04:17:03;;;;;;;0.20;0.20;;;0.80;99.90;;;;;;4935080;28;20276;-73
2022/01/07 04:19:31;;;;;;;0.20;0.20;;;0.80;99.90;;;;;;4942728;28;20211;-72
2022/01/07 04:21:59;;;;;;;0.15;0.15;;;0.80;99.90;;;;;;4943169;28;20243;-72
2022/01/07 04:24:26;;;;;;;0.10;0.10;;;0.80;99.90;;;;;;4926221;29;20212;-71
2022/01/07 04:26:54;;;;;;;0.20;0.20;;;0.90;99.90;;;;;;4925312;29;20263;-72
2022/01/07 04:29:21;;;;;;;0.10;0.10;;;0.90;99.90;;;;;;4918983;29;20215;-71
2022/01/07 04:31:48;;;;;;;0.15;0.15;;;0.90;99.90;;;;;;4925926;29;20216;-72
2022/01/07 04:34:15;;;;;;;0.20;0.20;;;0.90;99.90;;;;;;4920458;29;20203;-73
2022/01/07 04:36:42;;;;;;;0.20;0.20;;;1.00;99.90;;;;;;4926697;29;20230;-71
2022/01/07 04:39:10;;;;;;;0.20;0.20;;;1.00;99.90;;;;;;4923866;29;20231;-72
2022/01/07 04:41:37;;;;;;;0.20;0.20;;;1.00;99.90;;;;;;4918630;29;20219;-72
2022/01/07 04:44:05;;;;;;;0.20;0.20;;;1.00;99.90;;;;;;4941483;28;20589;-72
2022/01/07 04:46:32;;;;;;;0.10;0.10;;;1.00;99.90;;;;;;4927041;29;20638;-71
2022/01/07 04:48:59;;;;;;;0.20;0.20;;;1.00;99.90;;;;;;4920506;29;20268;-72
2022/01/07 04:51:26;;;;;;;0.20;0.20;;;1.00;99.90;;;;;;4922418;29;20698;-72
2022/01/07 04:53:53;;;;;;;0.20;0.20;;;1.00;99.90;;;;;;4927991;29;20667;-73
2022/01/07 04:56:22;;;;;;;0.10;0.10;;;1.00;99.90;;;;;;4945185;28;20211;-72
2022/01/07 04:58:49;;;;;;;0.10;0.10;;;1.00;99.90;;;;;;4927627;29;20203;-73
2022/01/07 05:01:16;;;;;;;0.15;0.15;;;1.00;99.90;;;;;;4943909;28;20223;-72
2022/01/07 05:03:43;;;;;;;0.20;0.20;;;1.00;99.90;;;;;;4926441;29;20207;-72
2022/01/07 05:06:36;;;;;;;0.20;0.20;;;1.00;99.90;;;;;;4931234;28;21234;-73
2022/01/07 05:08:59;;;;;;;0.30;0.30;;;1.00;99.90;;;;;;4921335;29;20207;-73
2022/01/07 05:11:28;;;;;;;0.20;0.20;;;1.00;99.90;;;;;;4918481;29;20242;-73
2022/01/07 05:13:55;;;;;;;0.20;0.20;;;1.00;99.90;;;;;;4940331;28;20197;-72
2022/01/07 05:16:24;;;;;;;0.10;0.10;;;1.00;99.90;;;;;;4934842;28;20243;-72
2022/01/07 05:18:50;;;;;;;0.20;0.20;;;1.00;99.90;;;;;;4918723;29;20214;-72
2022/01/07 05:21:17;;;;;;;0.20;0.20;;;1.00;99.90;;;;;;4918107;29;20660;-73
2022/01/07 05:23:44;;;;;;;0.20;0.20;;;1.00;99.90;;;;;;4924316;29;20212;-72
2022/01/07 05:26:11;;;;;;;0.20;0.20;;;1.00;99.90;;;;;;4919691;29;20617;-73
2022/01/07 05:28:40;;;;;;;0.10;0.10;;;1.00;99.90;;;;;;4924333;29;20216;-73
2022/01/07 05:31:07;;;;;;;0.10;0.10;;;1.00;99.90;;;;;;4923814;29;20739;-72
2022/01/07 05:33:34;;;;;;;0.10;0.10;;;1.00;99.90;;;;;;4924504;29;20619;-73
2022/01/07 05:36:01;;;;;;;0.10;0.10;;;1.00;99.90;;;;;;4925526;29;20239;-73
2022/01/07 05:38:27;;;;;;;0.17;0.17;;;1.00;99.90;;;;;;4940500;29;20632;-72
2022/01/07 05:40:54;;;;;;;0.20;0.20;;;1.00;99.90;;;;;;4940046;28;20709;-73
2022/01/07 05:43:22;;;;;;;0.10;0.10;;;1.00;99.90;;;;;;4914659;29;20702;-72
2022/01/07 05:45:50;;;;;;;0.10;0.10;;;1.00;99.90;;;;;;4939521;28;20211;-73
2022/01/07 05:48:17;;;;;;;0.10;0.10;;;1.10;99.90;;;;;;4919463;29;20200;-73
2022/01/07 05:50:44;;;;;;;0.20;0.20;;;1.10;99.90;;;;;;4916832;29;20203;-72
2022/01/07 05:53:11;;;;;;;0.10;0.10;;;1.10;99.90;;;;;;4924705;29;20634;-73
2022/01/07 05:55:39;;;;;;;0.20;0.20;;;1.10;99.90;;;;;;4917158;29;20644;-72
2022/01/07 05:58:06;;;;;;;0.20;0.20;;;1.20;99.90;;;;;;4925553;29;20678;-73
2022/01/07 06:00:33;;;;;;;0.20;0.20;;;1.20;99.90;;;;;;4926214;29;21204;-72
2022/01/07 06:03:02;;;;;;;0.10;0.10;;;1.20;99.90;;;;;;4920601;29;20234;-74
2022/01/07 06:05:29;;;;;;;0.20;0.20;;;1.20;99.90;;;;;;4915610;29;20203;-73
2022/01/07 06:07:55;;;;;;;0.10;0.10;;;1.10;99.90;;;;;;4933480;28;20211;-73
2022/01/07 06:10:23;;;;;;;0.20;0.20;;;1.20;99.90;;;;;;4925189;29;21266;-73
2022/01/07 06:12:49;;;;;;;0.20;0.20;;;1.20;99.90;;;;;;4934474;28;20762;-72
2022/01/07 06:15:17;;;;;;;0.20;0.20;;;1.20;99.90;;;;;;4916865;29;20682;-72
2022/01/07 06:17:44;;;;;;;0.10;0.10;;;1.20;99.90;;;;;;4919143;29;20615;-73
2022/01/07 06:20:15;;;;;;;0.20;0.20;;;1.20;99.90;;;;;;4918238;29;20620;-73
2022/01/07 06:22:42;;;;;;;0.10;0.10;;;1.20;99.90;;;;;;4932205;28;20309;-72
2022/01/07 06:25:09;;;;;;;0.13;0.13;;;1.20;99.90;;;;;;4925109;29;20245;-73
2022/01/07 06:27:38;;;;;;;0.20;0.20;;;1.20;99.90;;;;;;4938955;28;20653;-71
2022/01/07 06:30:06;;;;;;;0.10;0.10;;;1.20;99.90;;;;;;4924100;29;20211;-73
2022/01/07 06:32:33;;;;;;;0.20;0.20;;;1.10;99.90;;;;;;4918709;29;20650;-72
2022/01/07 06:35:00;;;;;;;0.20;0.20;;;1.10;99.90;;;;;;4924660;29;20694;-73
2022/01/07 06:37:29;;;;;;;0.10;0.10;;;1.10;99.90;;;;;;4939175;28;20652;-73
2022/01/07 06:39:57;;;;;;;0.20;0.20;;;1.10;99.90;;;;;;4922561;29;20739;-73
2022/01/07 06:42:24;;;;;;;0.20;0.20;;;1.00;99.90;;;;;;4915418;29;20684;-72
2022/01/07 06:44:51;;;;;;;0.10;0.10;;;1.00;99.90;;;;;;4915858;28;20203;-72
2022/01/07 06:47:18;;;;;;;0.10;0.10;;;1.00;99.90;;;;;;4918545;29;20618;-72
2022/01/07 06:49:45;;;;;;;0.10;0.10;;;1.00;99.90;;;;;;4918562;29;20319;-73
2022/01/07 06:52:12;;;;;;;0.10;0.10;;;1.00;99.90;;;;;;4923513;29;20306;-73
2022/01/07 06:54:40;;;;;;;0.10;0.10;;;0.90;99.90;;;;;;4916914;29;20618;-72
2022/01/07 06:57:07;;;;;;;0.10;0.10;;;0.90;99.90;;;;;;4927146;28;20636;-72
2022/01/07 06:59:34;;;;;;;0.10;0.10;;;0.90;99.90;;;;;;4923182;29;20627;-71
2022/01/07 07:02:01;;;;;;;0.20;0.20;;;1.00;99.90;;;;;;4940731;28;20672;-72
2022/01/07 07:04:29;;;;;;;0.20;0.20;;;1.00;99.90;;;;;;4926019;29;20200;-72
2022/01/07 07:06:56;;;;;;;0.20;0.20;;;1.00;99.90;;;;;;4942579;28;20331;-71
2022/01/07 07:09:23;;;;;;;0.20;0.20;;;1.00;99.90;;;;;;4919142;29;20611;-72
2022/01/07 07:11:52;;;;;;;0.10;0.10;;;1.00;99.90;;;;;;4924056;29;20654;-72
2022/01/07 07:14:19;;;;;;;0.10;0.10;;;1.10;99.90;;;;;;4920915;29;20631;-72
2022/01/07 07:16:45;;;;;;;0.20;0.20;;;1.10;99.90;;;;;;4932027;28;20211;-70
2022/01/07 07:19:12;;;;;;;0.10;0.10;;;1.10;99.90;;;;;;4921406;29;20650;-71
2022/01/07 07:21:40;;;;;;;0.10;0.10;;;1.10;99.90;;;;;;4922718;29;20667;-71
2022/01/07 07:24:08;;;;;;;0.20;0.20;;;1.20;99.90;;;;;;4927522;29;20710;-71
2022/01/07 07:26:35;;;;;;;0.10;0.10;;;1.20;99.90;;;;;;4944896;28;20638;-71
2022/01/07 07:29:03;;;;;;;0.10;0.10;;;1.20;99.90;;;;;;4926934;29;20615;-74
2022/01/07 07:31:31;;;;;;;0.20;0.20;;;1.20;99.90;;;;;;4922906;29;20228;-73
2022/01/07 07:34:20;;;;;;;0.20;0.20;;;1.20;99.90;;;;;;4942857;28;20624;-71
2022/01/07 07:36:47;;;;;;;0.20;0.20;;;1.20;99.90;;;;;;4918689;29;20673;-71
2022/01/07 07:39:16;;;;;;;0.20;0.20;;;1.30;99.90;;;;;;4928197;29;20627;-74
2022/01/07 07:41:44;;;;;;;0.20;0.20;;;1.30;99.90;;;;;;4930978;29;20702;-73
2022/01/07 07:44:12;;;;;;;0.10;0.10;;;1.30;99.90;;;;;;4930472;29;20632;-74
2022/01/07 07:46:41;;;;;;;0.13;0.13;;;1.30;99.90;;;;;;4924673;29;20627;-72
2022/01/07 07:49:09;;;;;;;0.20;0.20;;;1.30;99.90;;;;;;4926702;29;21228;-72
2022/01/07 07:51:37;;;;;;;0.17;0.17;;;1.30;99.90;;;;;;4926695;29;20659;-73
2022/01/07 07:54:05;;;;;;;0.20;0.20;;;1.30;99.90;;;;;;4919660;29;20643;-74
2022/01/07 07:56:32;;;;;;;0.20;0.20;;;1.30;99.90;;;;;;4928847;29;20200;-71
2022/01/07 07:59:00;;;;;;;0.10;0.10;;;1.30;99.90;;;;;;4923515;29;20626;-71
2022/01/07 08:01:29;;;;;;;0.10;0.10;;;1.30;99.90;;;;;;4927333;29;20718;-72
2022/01/07 08:03:56;;;;;;;0.10;0.10;;;1.30;99.90;;;;;;4923525;29;20654;-71
2022/01/07 08:06:24;;;;;;;0.20;0.20;;;1.30;99.90;;;;;;4928306;29;20278;-72
2022/01/07 08:08:51;;;;;;;0.10;0.10;;;1.40;99.90;;;;;;4923964;29;20632;-71
2022/01/07 08:11:18;;;;;;;0.10;0.10;;;1.40;99.90;;;;;;4929785;29;20659;-71
2022/01/07 08:16:32;;;;;;;0.10;0.10;;;1.50;99.90;;;;;;4928698;29;21189;-72
2022/01/07 08:19:00;;;;;;;0.10;0.10;;;1.50;99.90;;;;;;4925677;29;20639;-71
2022/01/07 08:21:29;;;;;;;0.17;0.17;;;1.50;99.90;;;;;;4918731;29;20664;-71
2022/01/07 08:23:57;;;;;;;0.10;0.10;;;1.60;99.90;;;;;;4915925;29;20733;-70
2022/01/07 08:26:25;;;;;;;0.17;0.17;;;1.60;99.90;;;;;;4928857;29;20623;-71
2022/01/07 08:28:55;;;;;;;0.10;0.10;;;1.60;99.90;;;;;;4941656;28;20636;-72
2022/01/07 08:36:57;;;;;;;0.10;0.10;;;1.70;99.90;;;;;;4927961;29;20661;-73
2022/01/07 08:39:25;;;;;;;0.10;0.10;;;1.70;99.90;;;;;;4922204;29;20738;-72
2022/01/07 08:41:53;;;;;;;0.13;0.13;;;1.80;99.90;;;;;;4921417;29;21409;-73
2022/01/07 08:44:22;;;;;;;0.10;0.10;;;1.80;99.90;;;;;;4924482;29;20714;-72
2022/01/07 08:46:51;;;;;;;0.10;0.10;;;1.90;99.90;;;;;;4924359;29;20653;-71
2022/01/07 08:49:19;;;;;;;0.10;0.10;;;1.90;99.90;;;;;;4925540;29;20620;-72
2022/01/07 08:51:46;;;;;;;0.20;0.20;;;1.90;99.90;;;;;;4917854;29;20722;-72
2022/01/07 08:54:13;;;;;;;0.10;0.10;;;2.00;99.90;;;;;;4924602;29;20623;-71
2022/01/07 08:56:40;;;;;;;0.20;0.20;;;2.00;99.90;;;;;;4933215;28;20631;-71
2022/01/07 08:59:07;;;;;;;0.10;0.10;;;2.00;99.90;;;;;;4924789;29;20624;-71
2022/01/07 09:01:34;;;;;;;0.10;0.10;;;2.00;99.90;;;;;;4924830;29;20774;-72
2022/01/07 09:04:01;;;;;;;0.17;0.17;;;2.10;99.90;;;;;;4918828;29;20720;-72
2022/01/07 09:06:30;;;;;;;0.20;0.20;;;2.10;99.90;;;;;;4926193;29;20624;-71
2022/01/07 09:08:56;;;;;;;0.10;0.10;;;2.10;99.90;;;;;;4931053;28;20655;-71
2022/01/07 09:11:23;;;;;;;0.10;0.10;;;2.10;99.90;;;;;;4926067;28;21289;-72
2022/01/07 09:13:52;;;;;;;0.20;0.20;;;2.20;99.90;;;;;;4933800;28;20620;-71
2022/01/07 09:16:20;;;;;;;0.20;0.20;;;2.20;99.90;;;;;;4925796;29;20628;-71
2022/01/07 09:18:49;;;;;;;0.20;0.20;;;2.30;99.90;;;;;;4935342;28;20619;-71
2022/01/07 09:21:16;;;;;;;0.13;0.13;;;2.30;99.90;;;;;;4919770;29;20646;-73
2022/01/07 09:23:44;;;;;;;0.17;0.17;;;2.30;99.90;;;;;;4920511;29;20651;-72
2022/01/07 09:26:13;;;;;;;0.10;0.10;;;2.30;99.90;;;;;;4920029;29;21202;-71
2022/01/07 09:28:40;;;;;;;0.10;0.10;;;2.40;99.90;;;;;;4925131;29;20638;-71
2022/01/07 09:31:08;;;;;;;0.10;0.10;;;2.40;99.90;;;;;;4925909;29;20784;-71
2022/01/07 09:33:35;;;;;;;0.20;0.20;;;2.50;99.90;;;;;;4927873;29;20643;-71
2022/01/07 09:36:02;;;;;;;0.10;0.10;;;2.50;99.90;;;;;;4926207;29;20667;-72
2022/01/07 09:38:30;;;;;;;0.10;0.10;;;2.50;99.90;;;;;;4923835;29;20647;-71
2022/01/07 09:40:59;;;;;;;0.20;0.20;;;2.50;99.90;;;;;;4925540;29;20647;-72
2022/01/07 09:43:27;;;;;;;0.10;0.10;;;2.50;99.90;;;;;;4914366;29;20668;-74
2022/01/07 09:45:54;;;;;;;0.10;0.10;;;2.50;99.90;;;;;;4923007;29;20739;-72
2022/01/07 09:48:22;;;;;;;0.10;0.10;;;2.50;99.90;;;;;;4925773;29;20708;-73
2022/01/07 09:50:49;;;;;;;0.10;0.10;;;2.60;99.90;;;;;;4919693;29;20706;-71
2022/01/07 09:53:16;;;;;;;0.17;0.17;;;2.60;99.90;;;;;;4933541;28;20623;-72
2022/01/07 09:55:44;;;;;;;0.10;0.10;;;2.60;99.90;;;;;;4917614;29;21197;-72
2022/01/07 09:58:13;;;;;;;0.20;0.20;;;2.60;99.90;;;;;;4920568;29;20615;-72
2022/01/07 10:00:42;;;;;;;0.10;0.10;;;2.60;99.90;;;;;;4923949;29;20631;-71
2022/01/07 10:03:11;;;;;;;0.10;0.10;;;2.60;99.90;;;;;;4922683;29;20676;-71
2022/01/07 10:05:44;;;;;;;0.10;0.10;;;2.60;99.90;;;;;;4921685;29;20635;-72
2022/01/07 10:08:28;;;;;;;0.10;0.10;;;2.70;99.90;;;;;;4937395;28;20627;-73
2022/01/07 10:11:14;;;;;;;0.13;0.13;;;2.70;99.90;;;;;;4919812;29;20621;-73
2022/01/07 10:13:44;;;;;;;0.10;0.10;;;2.70;99.90;;;;;;4919639;29;20615;-71
2022/01/07 10:16:16;;;;;;;0.10;0.10;;;2.80;99.90;;;;;;4924406;29;20711;-72
2022/01/07 10:18:43;;;;;;;0.10;0.10;;;2.80;99.90;;;;;;4915397;29;21216;-72
2022/01/07 10:21:12;;;;;;;0.10;0.10;;;2.80;99.90;;;;;;4914432;29;20662;-72
2022/01/07 10:23:39;;;;;;;0.20;0.20;;;2.80;99.90;;;;;;4925318;29;20681;-72
2022/01/07 10:26:19;;;;;;;0.10;0.10;;;2.80;99.90;;;;;;4940969;28;20644;-70
2022/01/07 10:28:49;;;;;;;0.10;0.10;;;2.70;99.90;;;;;;4937656;28;21197;-72
2022/01/07 10:31:21;;;;;;;0.10;0.10;;;2.70;99.90;;;;;;4927837;28;20678;-72
2022/01/07 10:33:49;;;;;;;0.10;0.10;;;2.70;99.90;;;;;;4939582;28;20627;-71
2022/01/07 10:36:19;;;;;;;0.10;0.10;;;2.60;99.90;;;;;;4917656;29;20755;-72
2022/01/07 10:38:49;;;;;;;0.20;0.20;;;2.50;99.90;;;;;;4928200;29;20734;-72
2022/01/07 10:41:17;;;;;;;0.10;0.10;;;2.40;99.90;;;;;;4943251;28;20741;-71
2022/01/07 10:43:45;;;;;;;0.10;0.10;;;2.30;99.90;;;;;;4922475;29;20662;-72
2022/01/07 10:46:20;;;;;;;0.10;0.10;;;2.30;99.90;;;;;;4925752;29;20634;-72
2022/01/07 10:48:50;;;;;;;0.10;0.10;;;2.20;99.90;;;;;;4921513;29;20630;-71
2022/01/07 10:51:20;;;;;;;0.10;0.10;;;2.20;99.90;;;;;;4925922;29;20667;-72
2022/01/07 10:53:52;;;;;;;0.20;0.20;;;2.20;99.90;;;;;;4921673;28;20610;-72
2022/01/07 10:56:21;;;;;;;0.10;0.10;;;2.20;99.90;;;;;;4918750;29;20611;-71
2022/01/07 10:59:06;;;;;;;0.10;0.10;;;2.20;99.90;;;;;;4928038;29;20717;-72
2022/01/07 11:01:40;;;;;;;0.10;0.10;;;2.20;99.90;;;;;;4918619;29;20674;-72
2022/01/07 11:04:09;;;;;;;0.13;0.13;;;2.20;99.90;;;;;;4927940;28;20762;-72
2022/01/07 11:06:37;;;;;;;0.20;0.20;;;2.20;99.90;;;;;;4943494;28;20687;-70
2022/01/07 11:09:09;;;;;;;0.10;0.10;;;2.20;99.90;;;;;;4937993;28;20638;-72
2022/01/07 11:11:44;;;;;;;0.10;0.10;;;2.20;99.90;;;;;;4923877;29;20642;-71
2022/01/07 11:14:16;;;;;;;0.10;0.10;;;2.20;99.90;;;;;;4931634;28;20614;-71
2022/01/07 11:16:44;;;;;;;0.10;0.10;;;2.20;99.90;;;;;;4927225;29;20641;-70
2022/01/07 11:19:12;;;;;;;0.10;0.10;;;2.30;99.90;;;;;;4924035;29;20646;-71
2022/01/07 11:21:41;;;;;;;0.10;0.10;;;2.30;99.90;;;;;;4926529;29;20713;-71
2022/01/07 11:24:42;;;;;;;0.17;0.17;;;2.30;99.90;;;;;;4940916;28;20667;-69
2022/01/07 11:27:12;;;;;;;0.10;0.10;;;2.40;99.90;;;;;;4922608;29;20738;-71
2022/01/07 11:29:41;;;;;;;0.10;0.10;;;2.40;99.90;;;;;;4926756;29;20632;-70
2022/01/07 11:32:35;;;;;;;0.10;0.10;;;2.40;99.90;;;;;;4919229;29;20662;-71
2022/01/07 11:35:46;;;;;;;0.10;0.10;;;2.50;99.90;;;;;;4923496;29;20623;-72
2022/01/07 11:38:39;;;;;;;0.20;0.20;;;2.50;99.90;;;;;;4920504;29;20682;-70
2022/01/07 11:41:32;;;;;;;0.10;0.10;;;2.50;99.90;;;;;;4924430;29;20628;-70
2022/01/07 11:44:10;;;;;;;0.10;0.10;;;2.50;99.90;;;;;;4918911;29;20677;-74
2022/01/07 11:46:37;;;;;;;0.10;0.10;;;2.60;99.90;;;;;;4920562;29;20621;-70
2022/01/07 11:49:06;;;;;;;0.10;0.10;;;2.60;99.90;;;;;;4941635;28;20626;-72
2022/01/07 11:51:39;;;;;;;0.10;0.10;;;2.60;99.90;;;;;;4934726;28;20785;-69
2022/01/07 11:54:27;;;;;;;0.10;0.10;;;2.60;99.90;;;;;;4919069;29;20610;-71
2022/01/07 11:57:11;;;;;;;0.10;0.10;;;2.60;99.90;;;;;;4939073;28;20628;-72
2022/01/07 11:59:48;;;;;;;0.20;0.20;;;2.60;99.90;;;;;;4918446;29;21196;-69
2022/01/07 12:02:15;;;;;;;0.10;0.10;;;2.60;99.90;;;;;;4920993;29;20650;-72
2022/01/07 12:04:44;;;;;;;0.10;0.10;;;2.60;99.90;;;;;;4914768;29;20661;-72
2022/01/07 12:07:12;;;;;;;0.13;0.13;;;2.60;99.90;;;;;;4920898;28;20670;-71
2022/01/07 12:09:40;;;;;;;0.10;0.10;;;2.60;99.90;;;;;;4927537;28;20635;-71
2022/01/07 12:12:13;;;;;;;0.10;0.10;;;2.70;99.90;;;;;;4916832;29;20674;-69
2022/01/07 12:14:49;;;;;;;0.10;0.10;;;2.70;99.90;;;;;;4921321;29;20618;-71
2022/01/07 12:17:18;;;;;;;0.10;0.10;;;2.70;99.90;;;;;;4917375;29;20633;-71
2022/01/07 12:20:20;;;;;;;0.20;0.20;;;2.80;99.90;;;;;;4928138;28;21259;-71
2022/01/07 12:22:53;;;;;;;0.10;0.10;;;2.80;99.90;;;;;;4923981;29;20655;-73
2022/01/07 12:25:23;;;;;;;0.20;0.20;;;2.80;99.90;;;;;;4939432;28;20627;-70
2022/01/07 12:27:59;;;;;;;0.10;0.10;;;2.80;99.90;;;;;;4924050;29;20679;-70
2022/01/07 12:30:26;;;;;;;0.20;0.20;;;2.80;99.90;;;;;;4923399;29;20631;-71
2022/01/07 12:32:55;;;;;;;0.10;0.10;;;2.80;99.90;;;;;;4920690;29;20750;-69
2022/01/07 12:35:29;;;;;;;0.10;0.10;;;2.80;99.90;;;;;;4917964;29;20662;-70
2022/01/07 12:37:56;;;;;;;0.10;0.10;;;2.90;99.90;;;;;;4924163;29;20634;-70
2022/01/07 12:40:23;;;;;;;0.10;0.10;;;2.90;99.90;;;;;;4925979;29;20615;-71
2022/01/07 12:42:53;;;;;;;0.20;0.20;;;2.90;99.90;;;;;;4925701;28;20691;-73
2022/01/07 12:49:59;;;;;;;0.10;0.10;;;2.90;99.90;;;;;;4913403;29;20679;-71
2022/01/07 12:52:30;;;;;;;0.10;0.10;;;2.90;99.90;;;;;;4916975;29;21084;-73
2022/01/07 12:55:00;;;;;;;0.10;0.10;;;2.90;99.90;;;;;;4919484;29;20627;-73
2022/01/07 12:57:32;;;;;;;0.10;0.10;;;3.00;99.90;;;;;;4916468;29;20631;-70
2022/01/07 13:00:22;;;;;;;0.10;0.10;;;3.00;99.90;;;;;;4939314;28;20646;-71
2022/01/07 13:02:51;;;;;;;0.10;0.10;;;3.00;99.90;;;;;;4919853;29;20662;-70
2022/01/07 13:05:26;;;;;;;0.10;0.10;;;3.00;99.90;;;;;;4929620;29;20694;-70
2022/01/07 13:07:56;;;;;;;0.17;0.17;;;3.00;99.90;;;;;;4920504;29;20615;-72
2022/01/07 13:10:26;;;;;;;0.10;0.10;;;3.00;99.90;;;;;;4922480;29;20678;-72
2022/01/07 13:13:05;;;;;;;0.13;0.13;;;3.00;99.90;;;;;;4917209;29;20658;-70
2022/01/07 13:15:41;;;;;;;0.13;0.13;;;3.00;99.90;;;;;;4928283;28;20619;-70
2022/01/07 13:18:19;;;;;;;0.10;0.10;;;3.00;99.90;;;;;;4940396;28;20638;-71